createdAt,value
2022-11-23T00:00:51.137Z,-1.07
2022-11-23T00:05:58.484Z,-1.11
2022-11-23T00:11:06.251Z,-1.14
2022-11-23T00:16:35.960Z,-1.17
2022-11-23T00:21:43.349Z,-1.21
2022-11-23T00:26:50.643Z,-1.23
2022-11-23T00:31:57.903Z,-1.24
2022-11-23T00:37:05.510Z,-1.28
2022-11-23T00:42:13.023Z,-1.30
2022-11-23T00:47:20.623Z,-1.32
2022-11-23T00:52:28.168Z,-1.34
2022-11-23T00:57:36.770Z,-1.36
2022-11-23T01:02:44.203Z,-1.37
2022-11-23T01:07:51.545Z,-1.39
2022-11-23T01:12:58.944Z,-1.39
2022-11-23T01:18:06.452Z,-1.40
2022-11-23T01:23:13.891Z,-1.40
2022-11-23T01:28:22.522Z,-1.40
2022-11-23T01:33:30.114Z,-1.42
2022-11-23T01:38:37.530Z,-1.42
2022-11-23T01:43:45.172Z,-1.42
2022-11-23T01:48:57.405Z,-1.41
2022-11-23T01:54:06.054Z,-1.40
2022-11-23T01:59:17.607Z,-1.40
2022-11-23T02:04:31.764Z,-1.40
2022-11-23T02:09:41.050Z,-1.40
2022-11-23T02:14:49.885Z,-1.42
2022-11-23T02:20:06.585Z,-1.44
2022-11-23T02:25:21.752Z,-1.47
2022-11-23T02:35:57.022Z,-1.53
2022-11-23T02:41:04.492Z,-1.57
2022-11-23T02:46:13.771Z,-1.59
2022-11-23T02:51:21.440Z,-1.63
2022-11-23T02:56:29.326Z,-1.67
2022-11-23T03:01:37.006Z,-1.70
2022-11-23T03:06:46.531Z,-1.72
2022-11-23T03:11:54.214Z,-1.75
2022-11-23T03:17:01.559Z,-1.77
2022-11-23T03:22:12.236Z,-1.79
2022-11-23T03:27:20.144Z,-1.80
2022-11-23T03:32:28.135Z,-1.82
2022-11-23T03:37:35.779Z,-1.85
2022-11-23T03:42:45.435Z,-1.87
2022-11-23T03:47:53.175Z,-1.89
2022-11-23T03:53:01.017Z,-1.91
2022-11-23T03:58:09.408Z,-1.92
2022-11-23T04:03:16.868Z,-1.93
2022-11-23T04:09:02.244Z,-1.94
2022-11-23T04:14:28.668Z,-1.94
2022-11-23T04:19:36.877Z,-1.93
2022-11-23T04:24:44.447Z,-1.94
2022-11-23T04:29:52.129Z,-1.93
2022-11-23T04:35:00.054Z,-1.92
2022-11-23T04:40:10.176Z,-1.92
2022-11-23T04:45:24.048Z,-1.91
2022-11-23T04:50:32.889Z,-1.91
2022-11-23T04:55:40.696Z,-1.89
2022-11-23T05:00:48.531Z,-1.91
2022-11-23T05:05:59.769Z,-1.90
2022-11-23T05:11:10.928Z,-1.91
2022-11-23T05:16:18.687Z,-1.90
2022-11-23T05:21:26.115Z,-1.90
2022-11-23T05:26:34.375Z,-1.89
2022-11-23T05:31:41.694Z,-1.90
2022-11-23T05:36:49.587Z,-1.90
2022-11-23T05:41:57.497Z,-1.91
2022-11-23T05:47:14.587Z,-1.92
2022-11-23T05:52:22.367Z,-1.93
2022-11-23T05:57:29.968Z,-1.93
2022-11-23T06:02:41.011Z,-1.95
2022-11-23T06:07:54.405Z,-1.96
2022-11-23T06:13:08.007Z,-1.97
2022-11-23T06:18:15.727Z,-1.97
2022-11-23T06:23:26.566Z,-1.97
2022-11-23T06:28:36.586Z,-2.06
2022-11-23T06:33:44.088Z,-1.99
2022-11-23T06:38:51.371Z,-2.00
2022-11-23T06:44:02.208Z,-2.01
2022-11-23T06:49:22.125Z,-2.02
2022-11-23T06:54:45.750Z,-2.04
2022-11-23T06:59:53.637Z,-2.06
2022-11-23T07:05:06.466Z,-2.07
2022-11-23T07:10:14.806Z,-2.09
2022-11-23T07:15:27.690Z,-2.11
2022-11-23T07:20:35.586Z,-2.13
2022-11-23T07:25:44.128Z,-2.14
2022-11-23T07:30:53.697Z,-2.14
2022-11-23T07:36:04.491Z,-2.16
2022-11-23T07:41:12.088Z,-2.17
2022-11-23T07:46:29.686Z,-2.20
2022-11-23T07:51:37.086Z,-2.23
2022-11-23T07:56:45.087Z,-2.27
2022-11-23T08:01:58.220Z,-2.31
2022-11-23T08:07:06.528Z,-2.34
2022-11-23T08:12:14.107Z,-2.36
2022-11-23T08:17:21.789Z,-2.39
2022-11-23T08:22:29.484Z,-2.40
2022-11-23T08:27:37.094Z,-2.42
2022-11-23T08:32:44.487Z,-2.43
2022-11-23T08:37:52.006Z,-2.45
2022-11-23T08:42:59.665Z,-2.56
2022-11-23T08:48:09.209Z,-2.47
2022-11-23T08:53:16.798Z,-2.47
2022-11-23T08:58:24.366Z,-2.44
2022-11-23T09:03:31.915Z,-2.42
2022-11-23T09:08:39.701Z,-2.38
2022-11-23T09:13:47.179Z,-2.34
2022-11-23T09:18:59.338Z,-2.34
2022-11-23T09:24:04.825Z,-2.33
2022-11-23T09:29:12.542Z,-2.32
2022-11-23T09:34:20.059Z,-2.30
2022-11-23T09:39:27.782Z,-2.28
2022-11-23T09:44:50.501Z,-2.24
2022-11-23T09:50:05.983Z,-2.23
2022-11-23T09:55:21.142Z,-2.17
2022-11-23T10:00:29.420Z,-2.13
2022-11-23T10:05:41.123Z,-2.09
2022-11-23T10:10:56.352Z,-2.04
2022-11-23T10:16:21.394Z,-2.00
2022-11-23T10:21:37.125Z,-1.98
2022-11-23T10:26:48.442Z,-1.95
2022-11-23T10:31:57.531Z,-1.92
2022-11-23T10:37:05.145Z,-1.89
2022-11-23T10:42:27.860Z,-1.87
2022-11-23T10:47:44.195Z,-1.87
2022-11-23T10:52:56.900Z,-1.81
2022-11-23T10:58:04.620Z,-1.80
2022-11-23T11:03:26.588Z,-1.78
2022-11-23T11:08:35.500Z,-1.78
2022-11-23T11:13:48.260Z,-1.79
2022-11-23T11:18:55.727Z,-1.80
2022-11-23T11:24:06.605Z,-1.81
2022-11-23T11:29:38.690Z,-1.83
2022-11-23T11:34:51.571Z,-1.83
2022-11-23T11:40:05.538Z,-1.83
2022-11-23T11:45:18.410Z,-1.81
2022-11-23T11:50:31.915Z,-1.79
2022-11-23T11:55:52.461Z,-1.78
2022-11-23T12:01:07.201Z,-1.76
2022-11-23T12:06:26.515Z,-1.76
2022-11-23T12:11:34.541Z,-1.73
2022-11-23T12:17:10.275Z,-1.72
2022-11-23T12:22:38.268Z,-1.70
2022-11-23T12:27:53.989Z,-1.67
2022-11-23T12:33:19.981Z,-1.64
2022-11-23T12:38:37.670Z,-1.62
2022-11-23T12:43:56.109Z,-1.58
2022-11-23T12:49:21.106Z,-1.57
2022-11-23T12:54:41.600Z,-1.55
2022-11-23T12:59:55.810Z,-1.53
2022-11-23T13:05:33.840Z,-1.51
2022-11-23T13:10:49.982Z,-1.48
2022-11-23T13:16:16.177Z,-1.44
2022-11-23T13:21:31.342Z,-1.44
2022-11-23T13:26:38.899Z,-1.43
2022-11-23T13:31:46.281Z,-1.44
2022-11-23T13:37:18.345Z,-1.45
2022-11-23T13:42:26.148Z,-1.46
2022-11-23T13:47:33.669Z,-1.48
2022-11-23T13:52:50.827Z,-1.49
2022-11-23T13:58:32.471Z,-1.51
2022-11-23T14:03:56.949Z,-1.52
2022-11-23T14:09:08.842Z,-1.53
2022-11-23T14:14:19.021Z,-1.55
2022-11-23T14:19:33.633Z,-1.58
2022-11-23T14:25:13.535Z,-1.60
2022-11-23T14:30:36.262Z,-1.63
2022-11-23T14:35:54.542Z,-1.65
2022-11-23T14:41:09.003Z,-1.67
2022-11-23T14:46:21.250Z,-1.68
2022-11-23T14:51:29.360Z,-1.70
2022-11-23T14:56:40.953Z,-1.72
2022-11-23T15:01:52.989Z,-1.73
2022-11-23T15:07:04.105Z,-1.75
2022-11-23T15:12:22.383Z,-1.77
2022-11-23T15:17:30.109Z,-1.80
2022-11-23T15:22:39.741Z,-1.82
2022-11-23T15:27:47.661Z,-1.81
2022-11-23T15:33:02.601Z,-1.80
2022-11-23T15:38:17.765Z,-1.81
2022-11-23T15:43:28.022Z,-1.83
2022-11-23T15:48:37.502Z,-1.83
2022-11-23T15:53:51.117Z,-1.82
2022-11-23T15:59:00.400Z,-1.81
2022-11-23T16:04:26.146Z,-1.80
2022-11-23T16:09:57.317Z,-1.79
2022-11-23T16:15:44.669Z,-1.77
2022-11-23T16:20:56.624Z,-1.75
2022-11-23T16:26:05.989Z,-1.74
2022-11-23T16:31:37.614Z,-1.72
2022-11-23T16:36:45.182Z,-1.71
2022-11-23T16:41:52.903Z,-1.71
2022-11-23T16:47:23.361Z,-1.69
2022-11-23T16:52:30.982Z,-1.68
2022-11-23T16:57:39.983Z,-1.69
2022-11-23T17:02:47.568Z,-1.66
2022-11-23T17:07:55.312Z,-1.64
2022-11-23T17:13:04.829Z,-1.62
2022-11-23T17:18:16.216Z,-1.60
2022-11-23T17:23:24.079Z,-1.59
2022-11-23T17:28:31.600Z,-1.57
2022-11-23T17:33:39.287Z,-1.55
2022-11-23T17:38:47.760Z,-1.53
2022-11-23T17:43:55.886Z,-1.51
2022-11-23T17:49:03.457Z,-1.49
2022-11-23T17:54:11.200Z,-1.48
2022-11-23T17:59:18.719Z,-1.47
2022-11-23T18:04:26.142Z,-1.49
2022-11-23T18:09:34.011Z,-1.46
2022-11-23T18:14:41.839Z,-1.47
2022-11-23T18:19:49.208Z,-1.47
2022-11-23T18:24:56.920Z,-1.49
2022-11-23T18:30:04.238Z,-1.50
2022-11-23T18:35:13.776Z,-1.52
2022-11-23T18:40:21.766Z,-1.51
2022-11-23T18:45:29.281Z,-1.52
2022-11-23T18:50:36.849Z,-1.50
2022-11-23T18:55:44.489Z,-1.51
2022-11-23T19:00:52.362Z,-1.50
2022-11-23T19:06:04.999Z,-1.50
2022-11-23T19:11:16.985Z,-1.48
2022-11-23T19:16:26.101Z,-1.46
2022-11-23T19:21:35.458Z,-1.45
2022-11-23T19:26:43.377Z,-1.44
2022-11-23T19:31:55.300Z,-1.43
2022-11-23T19:37:02.773Z,-1.44
2022-11-23T19:42:10.181Z,-1.46
2022-11-23T19:47:22.719Z,-1.51
2022-11-23T19:52:55.631Z,-1.49
2022-11-23T19:57:59.527Z,-1.49
2022-11-23T20:03:07.248Z,-1.50
2022-11-23T20:08:15.531Z,-1.51
2022-11-23T20:13:23.547Z,-1.51
2022-11-23T20:18:31.124Z,-1.52
2022-11-23T20:23:38.460Z,-1.52
2022-11-23T20:28:46.823Z,-1.53
2022-11-23T20:33:54.700Z,-1.50
2022-11-23T20:39:05.615Z,-1.50
2022-11-23T20:44:15.567Z,-1.51
2022-11-23T20:49:22.841Z,-1.51
2022-11-23T20:54:30.280Z,-1.52
2022-11-23T20:59:38.092Z,-1.52
2022-11-23T21:04:47.024Z,-1.54
2022-11-23T21:09:54.488Z,-1.54
2022-11-23T21:15:01.990Z,-1.54
2022-11-23T21:20:10.442Z,-1.55
2022-11-23T21:25:18.205Z,-1.55
2022-11-23T21:30:25.846Z,-1.57
2022-11-23T21:35:36.400Z,-1.59
2022-11-23T21:40:43.767Z,-1.60
2022-11-23T21:45:51.094Z,-1.61
2022-11-23T21:51:05.400Z,-1.60
2022-11-23T21:56:14.527Z,-1.60
2022-11-23T22:01:23.476Z,-1.60
2022-11-23T22:06:30.960Z,-1.61
2022-11-23T22:11:41.464Z,-1.61
2022-11-23T22:16:51.290Z,-1.61
2022-11-23T22:21:58.767Z,-1.63
2022-11-23T22:27:06.647Z,-1.64
2022-11-23T22:32:14.571Z,-1.65
2022-11-23T22:37:22.177Z,-1.65
2022-11-23T22:42:29.600Z,-1.68
2022-11-23T22:47:37.010Z,-1.66
2022-11-23T22:52:44.416Z,-1.66
2022-11-23T22:57:51.728Z,-1.66
2022-11-23T23:03:00.676Z,-1.67
2022-11-23T23:08:08.885Z,-1.66
2022-11-23T23:13:16.816Z,-1.66
2022-11-23T23:18:24.616Z,-1.65
2022-11-23T23:23:32.441Z,-1.65
2022-11-23T23:28:39.969Z,-1.65
2022-11-23T23:33:48.081Z,-1.65
2022-11-23T23:38:55.728Z,-1.63
2022-11-23T23:44:03.285Z,-1.62
2022-11-23T23:49:10.800Z,-1.60
2022-11-23T23:54:18.123Z,-1.58
2022-11-23T23:59:25.720Z,-1.57
